Airfield :
LOGIN :

Register | Disclaimer

   EN    FR    IT 

 










Legend :    VFR   Marginal VFR   IFR   Intensive IFR   Very Intensive IFR
Visi :
Ceiling :
>= 8 km
>= 3000ft
5 to 8 km
1000 to 3000 ft
1500m to 5 km
500 to 1000 ft
800 to 1500m
200 to 500 ft
< 800m
< 200 ft
Symbols :   Thunderstorms  Fog  Heavy snow  Heavy precipitations  Wind > 20 kt
SIGMETs :     Misc.  Thunderstorms  Icing  Turbulence  Mountain Waves  Volcanic Ashes







- Airport Elevation : 26 ft
- IATA code : BIA
- Download approach charts


LFKB - Bastia

EXPIRED METARs :
  • 241430Z 11007KT 080V150 9999 FEW030 29/19 Q1016 NOSIG
  • 241400Z 13007KT 090V170 9999 FEW030 29/19 Q1016 NOSIG
  • 241330Z 13007KT 090V170 9999 FEW030 29/19 Q1016 NOSIG
  • 241300Z 12007KT 080V160 9999 FEW030 30/19 Q1017 NOSIG
  • 241230Z 14007KT 110V170 9999 FEW030 29/20 Q1017 NOSIG
  • 241200Z 11007KT 060V170 9999 FEW030 29/21 Q1017 NOSIG

Expired Forecast.
ATIS : +33 4 95 59 19 40
No reported NOTAMs for that airfield.
2 SIGMETs reported for the Marseille FIR (LFMM) :
 
Embedded thunderstorms
LFMM SIGMET 7 VALID 242000/242200 LFPW
LFMM MARSEILLE FIR/UIR EMBD TS OBS AT 1945Z WI N4415 E00400 - N4500 E00330 - N4600 E00530 - N4500 E00645 TOP FL400 MOV E 20KT NC=
Embedded thunderstorms
LFMM SIGMET 6 VALID 241900/242000 LFPW
LFMM MARSEILLE FIR/UIR EMBD TS OBS AT 1845Z WI N4530 E00500 - N4415 E00515 - N4415 E00345 - N4530 E00345 TOP FL400 STNR NC=



MET'MAP, your aeronautical weather chart ! - Copyright ORBIFLY December 2007 - Disclaimer

ORBIFLY MET'MAP TEAM :

Programming & Development : Alexandra Zaïnal
Concept & Development : Baudouin d'Aumeries
Co-Development & Prog : Marc-Olivier Méhu
Technical & hardware support : Manuel Goepfert

Contact : metmap@orbifly.com




SOURCES & CREDITS :

   NOAA